Estación Meteorológica Peña el Pijo (Robertgarden) [ 05/25/18 12:58:48 CEST ]

Fecha Hora Presion(HPa) Temp (°C) Humedad % Rocio (°C) Viento ( m/s) Direccion Lluvia 1Hora(mm) Lluvia 24H(mm) LLuvia Total(mm)
2018-May-18 01:01:53 1007.900 7.6 74 3.3         215.48
2018-May-18 02:01:46 1007.900 6.5 78 2.9         215.48
2018-May-18 03:04:08 1007.300 5.6 79 2.2         215.48
2018-May-18 04:01:59 1007.400 4.8 81 1.8         215.48
2018-May-18 05:01:42 1007.200 4.8 82 1.9         215.48
2018-May-18 06:01:50 1007.300 4.2 83 1.6         215.48
2018-May-18 07:01:34 1007.500 3.9 84 1.4         215.48
2018-May-18 08:01:47 1007.900 5.3 85 2.9         215.48
2018-May-18 09:01:40 1008.100 10.3 83 7.5         215.48
2018-May-18 10:01:50 1007.700 16.4 57 7.8         215.48
2018-May-18 11:01:54 1007.600 19.4 46 7.4 0.8 SW     215.48
2018-May-18 12:01:41 1007.700 21.7 39 7.1         215.48
2018-May-18 13:01:35 1007.800 20.3 38 5.4         215.48
2018-May-18 14:01:31 1007.600 19.6 39 5.2         215.48
2018-May-18 15:01:21 1006.800 19.8 36 4.2         215.48
2018-May-18 16:01:44 1006.600 20.4 35 4.3         215.48
2018-May-18 17:01:57 1006.300 21.9 35 5.7         215.48
2018-May-18 18:02:08 1006.200 19.9 39 5.5         215.48
2018-May-18 19:01:43 1006.400 19.3 43 6.4         215.48
2018-May-18 20:02:08 1006.500 18.4 48 7.1         215.48
2018-May-18 21:01:50 1007.000 15.4 56 6.6         215.48
2018-May-18 22:01:43 1007.300 13.3 63 6.4         215.48
2018-May-18 23:01:50 1007.800 11.3 67 5.4         215.48

Temperatura Máxima:21°    Temperatura Mínima:
Presión Máxima:1008.100 Hpa    Presión Mínima:1006.200 Hpa


Volver